createdAt,value
2022-11-21T00:02:37.150Z,25.48
2022-11-21T00:05:41.641Z,21.50
2022-11-21T00:08:44.686Z,21.75
2022-11-21T00:11:46.842Z,19.95
2022-11-21T00:14:51.016Z,18.25
2022-11-21T00:17:53.741Z,17.35
2022-11-21T00:20:55.868Z,20.00
2022-11-21T00:23:58.312Z,16.70
2022-11-21T00:27:00.469Z,19.80
2022-11-21T00:30:02.907Z,19.63
2022-11-21T00:33:05.227Z,21.52
2022-11-21T00:36:09.462Z,18.58
2022-11-21T00:39:11.939Z,19.77
2022-11-21T00:42:13.804Z,15.73
2022-11-21T00:45:21.167Z,17.73
2022-11-21T00:48:25.666Z,17.15
2022-11-21T00:51:27.864Z,18.77
2022-11-21T00:54:29.824Z,18.85
2022-11-21T00:57:32.418Z,19.60
2022-11-21T01:00:34.274Z,19.42
2022-11-21T01:03:36.860Z,17.83
2022-11-21T01:06:38.980Z,21.75
2022-11-21T01:09:43.072Z,18.20
2022-11-21T01:12:45.587Z,20.20
2022-11-21T01:15:47.489Z,19.83
2022-11-21T01:18:49.322Z,20.85
2022-11-21T01:21:51.249Z,21.40
2022-11-21T01:24:53.085Z,22.27
2022-11-21T01:27:55.695Z,25.95
2022-11-21T01:31:06.740Z,23.48
2022-11-21T01:34:08.567Z,24.65
2022-11-21T01:37:10.412Z,20.67
2022-11-21T01:40:13.670Z,22.05
2022-11-21T01:43:16.819Z,21.00
2022-11-21T01:46:23.398Z,18.30
2022-11-21T01:49:31.663Z,21.33
2022-11-21T01:52:38.093Z,24.35
2022-11-21T01:55:40.612Z,20.40
2022-11-21T01:58:43.570Z,18.42
2022-11-21T02:01:49.967Z,24.35
2022-11-21T02:04:52.982Z,21.02
2022-11-21T02:07:58.692Z,23.58
2022-11-21T02:11:17.632Z,19.83
2022-11-21T02:14:19.632Z,22.20
2022-11-21T02:17:21.370Z,20.02
2022-11-21T02:20:25.092Z,21.88
2022-11-21T02:23:42.840Z,23.20
2022-11-21T02:29:46.756Z,20.13
2022-11-21T02:32:48.739Z,17.65
2022-11-21T02:35:58.183Z,17.88
2022-11-21T02:38:59.907Z,17.17
2022-11-21T02:42:34.415Z,19.17
2022-11-21T02:45:39.907Z,18.45
2022-11-21T02:48:41.732Z,19.42
2022-11-21T02:51:43.867Z,14.50
2022-11-21T02:54:45.553Z,17.20
2022-11-21T02:57:47.466Z,25.20
2022-11-21T03:00:49.414Z,18.52
2022-11-21T03:03:51.176Z,17.63
2022-11-21T03:06:52.952Z,25.10
2022-11-21T03:09:54.629Z,29.98
2022-11-21T03:13:01.392Z,28.52
2022-11-21T03:16:03.370Z,20.17
2022-11-21T03:19:05.032Z,23.25
2022-11-21T03:22:06.835Z,20.05
2022-11-21T03:25:08.930Z,30.98
2022-11-21T03:28:10.723Z,20.70
2022-11-21T03:31:12.502Z,17.17
2022-11-21T03:34:14.224Z,16.38
2022-11-21T03:37:17.184Z,21.50
2022-11-21T03:40:18.967Z,18.08
2022-11-21T03:43:20.759Z,20.73
2022-11-21T03:46:22.716Z,14.30
2022-11-21T03:49:24.393Z,21.30
2022-11-21T03:52:26.184Z,18.75
2022-11-21T03:55:27.902Z,16.42
2022-11-21T03:58:29.727Z,19.85
2022-11-21T04:01:36.445Z,16.45
2022-11-21T04:07:40.456Z,19.75
2022-11-21T04:10:52.764Z,14.13
2022-11-21T04:13:54.472Z,12.00
2022-11-21T04:16:56.190Z,23.85
2022-11-21T04:19:57.979Z,21.20
2022-11-21T04:22:59.792Z,15.68
2022-11-21T04:26:01.757Z,16.20
2022-11-21T04:29:03.518Z,18.10
2022-11-21T04:32:05.286Z,11.73
2022-11-21T04:35:07.970Z,15.77
2022-11-21T04:38:10.024Z,15.68
2022-11-21T04:41:11.771Z,15.15
2022-11-21T04:44:13.828Z,16.45
2022-11-21T04:47:15.618Z,15.15
2022-11-21T04:50:18.849Z,12.05
2022-11-21T04:53:20.660Z,14.32
2022-11-21T04:56:22.390Z,10.75
2022-11-21T04:59:24.215Z,11.80
2022-11-21T05:02:26.137Z,15.88
2022-11-21T05:05:27.854Z,14.75
2022-11-21T05:08:29.704Z,19.65
2022-11-21T05:11:50.045Z,20.08
2022-11-21T05:14:51.804Z,18.83
2022-11-21T05:17:53.620Z,17.50
2022-11-21T05:20:55.525Z,15.40
2022-11-21T05:23:57.426Z,15.63
2022-11-21T05:26:59.321Z,14.43
2022-11-21T05:30:01.292Z,13.75
2022-11-21T05:33:03.271Z,16.52
2022-11-21T05:36:05.409Z,17.40
2022-11-21T05:39:07.425Z,16.55
2022-11-21T05:42:09.402Z,18.42
2022-11-21T05:45:11.541Z,12.82
2022-11-21T05:48:13.586Z,16.02
2022-11-21T05:51:16.916Z,16.50
2022-11-21T05:54:18.751Z,16.55
2022-11-21T05:57:20.865Z,12.02
2022-11-21T06:00:22.706Z,13.23
2022-11-21T06:03:30.476Z,20.35
2022-11-21T06:06:32.283Z,13.70
2022-11-21T06:09:34.220Z,10.88
2022-11-21T06:12:36.089Z,15.93
2022-11-21T06:15:38.035Z,21.75
2022-11-21T06:18:44.946Z,12.98
2022-11-21T06:21:46.886Z,12.38
2022-11-21T06:24:48.849Z,12.98
2022-11-21T06:27:50.631Z,16.17
2022-11-21T06:30:52.639Z,15.18
2022-11-21T06:33:55.966Z,12.63
2022-11-21T06:36:57.871Z,18.92
2022-11-21T06:40:00.032Z,17.60
2022-11-21T06:43:02.049Z,12.25
2022-11-21T06:46:04.348Z,14.50
2022-11-21T06:49:07.437Z,8.98
2022-11-21T06:52:09.194Z,15.20
2022-11-21T06:55:12.073Z,13.25
2022-11-21T06:58:13.973Z,14.75
2022-11-21T07:01:15.769Z,11.05
2022-11-21T07:04:17.762Z,15.68
2022-11-21T07:07:19.790Z,9.05
2022-11-21T07:10:21.717Z,11.23
2022-11-21T07:13:23.684Z,15.32
2022-11-21T07:16:26.544Z,13.50
2022-11-21T07:19:28.795Z,18.65
2022-11-21T07:22:31.336Z,15.77
2022-11-21T07:25:36.662Z,13.88
2022-11-21T07:28:40.185Z,11.63
2022-11-21T07:31:42.135Z,13.25
2022-11-21T07:34:44.197Z,15.70
2022-11-21T07:37:46.156Z,9.38
2022-11-21T07:40:48.003Z,12.48
2022-11-21T07:43:49.991Z,15.20
2022-11-21T07:46:56.031Z,9.00
2022-11-21T07:49:57.964Z,8.18
2022-11-21T07:53:00.294Z,14.82
2022-11-21T07:56:02.251Z,14.50
2022-11-21T07:59:04.172Z,11.25
2022-11-21T08:02:06.622Z,16.85
2022-11-21T08:05:08.833Z,11.10
2022-11-21T08:08:14.278Z,13.40
2022-11-21T08:11:16.890Z,15.27
2022-11-21T08:14:18.905Z,7.07
2022-11-21T08:17:20.697Z,9.40
2022-11-21T08:20:22.580Z,8.48
2022-11-21T08:23:24.562Z,10.48
2022-11-21T08:26:26.548Z,13.85
2022-11-21T08:29:28.595Z,15.57
2022-11-21T08:32:30.543Z,11.65
2022-11-21T08:35:32.580Z,16.13
2022-11-21T08:38:34.526Z,14.45
2022-11-21T08:41:55.127Z,13.60
2022-11-21T08:44:57.267Z,15.07
2022-11-21T08:47:59.488Z,14.57
2022-11-21T08:51:01.384Z,16.58
2022-11-21T08:54:03.833Z,14.25
2022-11-21T08:57:05.666Z,16.38
2022-11-21T09:00:09.072Z,15.38
2022-11-21T09:03:11.002Z,12.27
2022-11-21T09:06:13.509Z,11.18
2022-11-21T09:09:17.382Z,18.15
2022-11-21T09:15:42.925Z,18.17
2022-11-21T09:18:44.998Z,27.85
2022-11-21T09:21:49.998Z,19.00
2022-11-21T09:24:52.088Z,22.58
2022-11-21T09:27:54.041Z,24.10
2022-11-21T09:30:56.389Z,36.75
2022-11-21T09:33:58.208Z,23.83
2022-11-21T09:37:00.220Z,26.35
2022-11-21T09:40:02.396Z,18.92
2022-11-21T09:43:26.114Z,16.42
2022-11-21T09:46:31.224Z,30.65
2022-11-21T09:49:41.212Z,23.17
2022-11-21T09:52:55.171Z,22.95
2022-11-21T09:56:00.253Z,21.83
2022-11-21T09:59:17.341Z,23.15
2022-11-21T10:02:23.018Z,18.25
2022-11-21T10:06:06.399Z,21.88
2022-11-21T10:09:36.010Z,25.35
2022-11-21T10:12:50.000Z,17.38
2022-11-21T10:16:09.611Z,17.25
2022-11-21T10:19:55.089Z,15.65
2022-11-21T10:23:22.897Z,17.38
2022-11-21T10:26:43.586Z,15.32
2022-11-21T10:30:16.841Z,21.90
2022-11-21T10:33:27.073Z,53.60
2022-11-21T10:36:34.065Z,41.80
2022-11-21T10:39:44.977Z,17.35
2022-11-21T10:43:00.525Z,15.10
2022-11-21T10:46:02.601Z,20.35
2022-11-21T10:49:05.152Z,18.35
2022-11-21T10:52:16.941Z,20.70
2022-11-21T10:55:26.464Z,16.95
2022-11-21T10:58:45.289Z,16.88
2022-11-21T11:01:55.866Z,24.17
2022-11-21T11:05:16.896Z,20.42
2022-11-21T11:08:19.170Z,27.95
2022-11-21T11:11:22.649Z,18.67
2022-11-21T11:14:32.364Z,18.50
2022-11-21T11:17:34.683Z,19.48
2022-11-21T11:20:36.654Z,15.63
2022-11-21T11:23:38.589Z,25.50
2022-11-21T11:26:49.812Z,49.03
2022-11-21T11:29:53.243Z,17.55
2022-11-21T11:32:55.429Z,12.55
2022-11-21T11:36:26.911Z,28.50
2022-11-21T11:39:50.742Z,28.33
2022-11-21T11:43:23.033Z,25.65
2022-11-21T11:47:11.665Z,21.35
2022-11-21T11:50:18.350Z,14.95
2022-11-21T11:53:22.956Z,10.30
2022-11-21T11:56:34.881Z,13.27
2022-11-21T11:59:43.068Z,15.38
2022-11-21T12:02:53.862Z,20.55
2022-11-21T12:06:09.740Z,19.88
2022-11-21T12:09:35.805Z,14.10
2022-11-21T12:12:55.412Z,16.90
2022-11-21T12:16:07.124Z,15.60
2022-11-21T12:19:21.132Z,13.15
2022-11-21T12:22:23.695Z,12.68
2022-11-21T12:25:36.930Z,13.50
2022-11-21T12:28:43.192Z,11.30
2022-11-21T12:31:56.198Z,16.15
2022-11-21T12:35:19.208Z,17.38
2022-11-21T12:38:44.542Z,17.33
2022-11-21T12:42:16.662Z,12.40
2022-11-21T12:45:32.121Z,11.95
2022-11-21T12:49:21.820Z,12.45
2022-11-21T12:52:59.053Z,9.48
2022-11-21T12:56:09.914Z,16.17
2022-11-21T12:59:13.282Z,12.05
2022-11-21T13:02:32.401Z,12.77
2022-11-21T13:05:41.159Z,17.27
2022-11-21T13:08:44.969Z,12.07
2022-11-21T13:12:01.690Z,12.45
2022-11-21T13:15:27.075Z,11.90
2022-11-21T13:18:33.532Z,13.18
2022-11-21T13:21:50.776Z,19.60
2022-11-21T13:24:56.976Z,19.13
2022-11-21T13:28:14.563Z,18.70
2022-11-21T13:31:32.483Z,21.00
2022-11-21T13:34:39.376Z,13.75
2022-11-21T13:38:03.550Z,17.42
2022-11-21T13:41:25.983Z,17.33
2022-11-21T13:44:32.007Z,22.48
2022-11-21T13:47:52.470Z,21.45
2022-11-21T13:51:26.049Z,22.20
2022-11-21T13:54:59.097Z,19.00
2022-11-21T13:58:31.839Z,19.25
2022-11-21T14:02:08.021Z,16.77
2022-11-21T14:05:37.781Z,16.48
2022-11-21T14:08:41.135Z,11.98
2022-11-21T14:11:52.504Z,13.60
2022-11-21T14:15:00.522Z,13.80
2022-11-21T14:18:02.953Z,14.68
2022-11-21T14:21:05.465Z,17.05
2022-11-21T14:24:19.650Z,19.75
2022-11-21T14:27:29.095Z,25.13
2022-11-21T14:30:32.822Z,22.77
2022-11-21T14:33:42.498Z,21.08
2022-11-21T14:36:45.645Z,14.48
2022-11-21T14:39:55.454Z,16.60
2022-11-21T14:43:00.250Z,13.35
2022-11-21T14:46:02.239Z,11.27
2022-11-21T14:49:16.172Z,10.80
2022-11-21T14:52:21.527Z,7.97
2022-11-21T14:55:33.373Z,16.80
2022-11-21T14:58:36.068Z,19.80
2022-11-21T15:01:39.341Z,13.95
2022-11-21T15:04:48.714Z,20.17
2022-11-21T15:08:10.775Z,16.08
2022-11-21T15:11:18.005Z,17.25
2022-11-21T15:14:29.842Z,11.10
2022-11-21T15:17:32.722Z,14.95
2022-11-21T15:20:35.018Z,13.57
2022-11-21T15:23:40.507Z,9.02
2022-11-21T15:26:42.966Z,10.00
2022-11-21T15:29:45.201Z,10.93
2022-11-21T15:33:07.995Z,7.40
2022-11-21T15:36:14.565Z,9.07
2022-11-21T15:39:24.621Z,12.13
2022-11-21T15:42:46.920Z,7.35
2022-11-21T15:45:49.792Z,10.68
2022-11-21T15:48:53.004Z,6.03
2022-11-21T15:52:11.031Z,7.95
2022-11-21T15:55:21.680Z,10.95
2022-11-21T15:58:24.159Z,10.35
2022-11-21T16:01:30.093Z,11.70
2022-11-21T16:04:32.349Z,7.13
2022-11-21T16:07:35.261Z,13.98
2022-11-21T16:10:37.599Z,11.48
2022-11-21T16:13:43.470Z,14.55
2022-11-21T16:16:47.833Z,15.93
2022-11-21T16:19:50.338Z,19.45
2022-11-21T16:22:52.432Z,19.60
2022-11-21T16:25:55.115Z,14.65
2022-11-21T16:28:58.830Z,17.20
2022-11-21T16:32:01.050Z,14.30
2022-11-21T16:35:03.329Z,16.70
2022-11-21T16:38:11.610Z,20.83
2022-11-21T16:41:13.882Z,13.35
2022-11-21T16:44:16.951Z,16.95
2022-11-21T16:47:18.936Z,18.42
2022-11-21T16:50:23.958Z,14.25
2022-11-21T16:53:26.097Z,12.02
2022-11-21T16:56:29.073Z,13.52
2022-11-21T16:59:34.266Z,19.52
2022-11-21T17:02:38.666Z,10.50
2022-11-21T17:05:41.014Z,15.95
2022-11-21T17:08:47.178Z,8.65
2022-11-21T17:11:49.655Z,12.02
2022-11-21T17:14:52.688Z,7.72
2022-11-21T17:17:57.472Z,10.70
2022-11-21T17:21:03.175Z,8.65
2022-11-21T17:24:06.151Z,8.32
2022-11-21T17:27:12.112Z,14.45
2022-11-21T17:30:16.152Z,15.88
2022-11-21T17:33:19.226Z,13.75
2022-11-21T17:36:27.192Z,16.42
2022-11-21T17:39:30.410Z,17.45
2022-11-21T17:42:33.285Z,19.00
2022-11-21T17:45:36.234Z,18.40
2022-11-21T17:48:40.155Z,12.65
2022-11-21T17:51:42.753Z,17.25
2022-11-21T17:54:44.815Z,15.07
2022-11-21T17:57:47.462Z,15.00
2022-11-21T18:00:55.218Z,14.10
2022-11-21T18:04:02.130Z,14.13
2022-11-21T18:07:04.981Z,13.63
2022-11-21T18:10:35.276Z,10.95
2022-11-21T18:13:32.620Z,12.55
2022-11-21T18:16:36.415Z,15.60
2022-11-21T18:19:40.194Z,14.63
2022-11-21T18:22:46.835Z,6.50
2022-11-21T18:25:50.799Z,7.38
2022-11-21T18:29:28.590Z,9.77
2022-11-21T18:32:24.532Z,7.30
2022-11-21T18:35:28.795Z,8.63
2022-11-21T18:38:48.194Z,10.75
2022-11-21T18:41:51.879Z,10.90
2022-11-21T18:44:54.267Z,11.60
2022-11-21T18:47:56.571Z,16.73
2022-11-21T18:51:11.959Z,9.70
2022-11-21T18:54:14.472Z,22.55
2022-11-21T18:57:16.752Z,11.90
2022-11-21T19:00:19.313Z,12.20
2022-11-21T19:03:22.962Z,12.77
2022-11-21T19:06:26.763Z,14.80
2022-11-21T19:09:32.454Z,11.57
2022-11-21T19:12:39.313Z,15.10
2022-11-21T19:15:43.343Z,9.10
2022-11-21T19:18:59.761Z,14.98
2022-11-21T19:22:08.999Z,11.18
2022-11-21T19:25:11.294Z,8.43
2022-11-21T19:28:13.854Z,7.78
2022-11-21T19:31:18.561Z,14.65
2022-11-21T19:34:21.038Z,10.52
2022-11-21T19:37:23.562Z,7.85
2022-11-21T19:40:25.916Z,11.80
2022-11-21T19:43:30.677Z,12.32
2022-11-21T19:46:35.384Z,14.35
2022-11-21T19:49:37.697Z,16.88
2022-11-21T19:52:39.853Z,11.82
2022-11-21T19:55:42.552Z,13.13
2022-11-21T19:58:45.945Z,20.25
2022-11-21T20:01:52.704Z,14.10
2022-11-21T20:04:55.763Z,11.85
2022-11-21T20:08:03.649Z,12.27
2022-11-21T20:11:11.772Z,13.85
2022-11-21T20:14:21.322Z,13.32
2022-11-21T20:17:24.658Z,15.02
2022-11-21T20:20:30.602Z,22.73
2022-11-21T20:23:33.497Z,16.15
2022-11-21T20:26:36.685Z,15.98
2022-11-21T20:29:39.874Z,12.68
2022-11-21T20:32:42.298Z,16.45
2022-11-21T20:35:44.710Z,16.70
2022-11-21T20:39:07.996Z,25.65
2022-11-21T20:42:17.193Z,23.70
2022-11-21T20:46:07.005Z,28.17
2022-11-21T20:48:48.692Z,16.80
2022-11-21T20:55:14.258Z,19.25
2022-11-21T20:58:17.011Z,18.13
2022-11-21T21:01:21.296Z,18.58
2022-11-21T21:04:23.471Z,11.20
2022-11-21T21:07:25.815Z,19.20
2022-11-21T21:10:33.933Z,19.63
2022-11-21T21:13:50.419Z,11.95
2022-11-21T21:16:52.601Z,14.13
2022-11-21T21:19:54.688Z,21.95
2022-11-21T21:22:57.303Z,14.23
2022-11-21T21:26:08.048Z,15.30
2022-11-21T21:29:18.446Z,14.18
2022-11-21T21:32:20.801Z,13.93
2022-11-21T21:35:23.094Z,12.07
2022-11-21T21:38:25.287Z,12.40
2022-11-21T21:41:28.982Z,11.32
2022-11-21T21:44:33.506Z,9.35
2022-11-21T21:47:35.748Z,11.02
2022-11-21T21:50:38.231Z,10.02
2022-11-21T21:53:40.607Z,13.32
2022-11-21T21:56:42.879Z,6.75
2022-11-21T21:59:44.873Z,9.73
2022-11-21T22:02:46.609Z,8.63
2022-11-21T22:05:49.117Z,11.98
2022-11-21T22:08:51.219Z,12.00
2022-11-21T22:11:54.471Z,6.90
2022-11-21T22:14:56.555Z,8.52
2022-11-21T22:17:58.492Z,10.68
2022-11-21T22:21:01.256Z,7.93
2022-11-21T22:27:27.855Z,9.10
2022-11-21T22:30:29.791Z,7.93
2022-11-21T22:33:32.037Z,6.70
2022-11-21T22:36:34.217Z,6.03
2022-11-21T22:39:36.216Z,8.25
2022-11-21T22:42:38.419Z,7.68
2022-11-21T22:45:40.454Z,11.27
2022-11-21T22:48:42.578Z,11.15
2022-11-21T22:51:44.367Z,10.60
2022-11-21T22:54:46.176Z,6.72
2022-11-21T22:57:48.667Z,8.60
2022-11-21T23:00:50.885Z,9.15
2022-11-21T23:03:53.137Z,7.18
2022-11-21T23:06:55.347Z,21.52
2022-11-21T23:09:58.008Z,6.47
2022-11-21T23:13:00.738Z,9.15
2022-11-21T23:16:03.941Z,11.23
2022-11-21T23:19:05.951Z,12.38
2022-11-21T23:22:08.106Z,7.95
2022-11-21T23:25:09.915Z,7.63
2022-11-21T23:28:11.925Z,7.13
2022-11-21T23:31:13.916Z,9.05
2022-11-21T23:34:15.680Z,7.32
2022-11-21T23:37:17.712Z,8.30
2022-11-21T23:40:20.025Z,8.88
2022-11-21T23:43:22.084Z,8.85
2022-11-21T23:46:23.975Z,7.95
2022-11-21T23:49:25.796Z,7.32
2022-11-21T23:52:27.954Z,12.35
2022-11-21T23:55:29.843Z,12.63
2022-11-21T23:58:31.702Z,10.38
